Flight Track Log - Related Links

Times and Time Zones

All times are in EDT time to prevent confusion due to time zone crossing. See the N30VP flight status page for this flight to view local times or setup timezone preferences in your user account.

Time Position Orientation Groundspeed Altitude Reporting Facility
EDT Latitude Longitude Course Direction KTS MPH feet Rate Location/Type
Fri 01:08:38 PM 39.1667 -78.2167 180° South 254 292 3,900  Level Potomac TRACON
Fri 01:09:38 PM 39.1000 -78.2167 180° South 255 293 4,600 1,105 Climbing Potomac TRACON
Fri 01:10:32 PM 39.0833 -78.1500 108° East 260 299 6,000 1,300 Climbing Potomac TRACON
Fri 01:11:38 PM 39.0500 -78.0667 117° Southeast 283 326 7,200 1,843 Climbing Potomac TRACON
Fri 01:12:39 PM 38.9833 -78.0000 142° Southeast 300 345 9,900 1,388 Climbing Potomac TRACON
Fri 01:13:39 PM 38.9000 -77.9500 155° Southeast 351 404 10,000 50 Climbing Potomac TRACON
Fri 01:14:39 PM 38.8167 -77.8833 148° Southeast 317 365 10,000 350 Level Potomac TRACON
Fri 01:15:39 PM 38.7500 -77.8333 150° Southeast 312 359 10,700 2,577 Climbing Potomac TRACON
Fri 01:17:08 PM 38.6192 -77.7361 150° Southeast 330 380 16,400 3,560 Climbing Washington Center
Fri 01:18:09 PM 38.5208 -77.7464 185° South 330 380 19,600 3,174 Climbing Washington Center
Fri 01:19:09 PM 38.4364 -77.8156 213° Southwest 336 387 22,800 2,777 Climbing Washington Center
Fri 01:20:10 PM 38.3581 -77.8714 209° Southwest 341 392 25,200 2,529 Climbing Washington Center
Fri 01:21:10 PM 38.2775 -77.9406 214° Southwest 351 404 27,900 2,542 Climbing Washington Center
Fri 01:22:08 PM 38.1969 -78.0039 212° Southwest 351 404 30,200 1,831 Climbing Washington Center
Fri 01:23:08 PM 38.1164 -78.0700 213° Southwest 351 404 31,500 1,240 Climbing Washington Center
Fri 01:24:09 PM 38.0294 -78.1408 213° Southwest 351 404 32,700 738 Climbing Washington Center
Fri 01:25:10 PM 37.9422 -78.2250 217° Southwest 351 404 33,000 149 Climbing Washington Center
Fri 01:26:10 PM 37.8569 -78.3061 217° Southwest 376 433 33,000 150 Level Washington Center
Fri 01:27:10 PM 37.7694 -78.3869 216° Southwest 382 440 33,300 814 Climbing Washington Center
Fri 01:28:08 PM 37.6861 -78.4678 218° Southwest 387 445 34,600 1,250 Climbing Washington Center
Fri 01:29:10 PM 37.6094 -78.5383 216° Southwest 387 445 35,800 689 Climbing Washington Center
Fri 01:30:10 PM 37.5283 -78.6164 217° Southwest 377 434 36,000 102 Climbing Washington Center
Fri 01:31:08 PM 37.4428 -78.6942 216° Southwest 377 434 36,000 605 Level Washington Center
Fri 01:32:09 PM 37.3594 -78.7717 216° Southwest 377 434 37,200 992 Climbing Washington Center
Fri 01:33:09 PM 37.2781 -78.8467 216° Southwest 372 428 38,000 397 Climbing Washington Center
Fri 01:34:10 PM 37.1881 -78.9314 217° Southwest 378 435 38,000  Level Washington Center
Fri 01:35:08 PM 37.1025 -79.0111 217° Southwest 378 435 38,000  Level Washington Center
Fri 01:36:08 PM 37.0189 -79.0881 216° Southwest 378 435 38,000  Level Washington Center
Fri 01:37:08 PM 36.9353 -79.1647 216° Southwest 373 429 38,000  Level Washington Center
Fri 01:38:09 PM 36.8494 -79.2439 216° Southwest 378 435 38,000  Level Washington Center
Fri 01:39:10 PM 36.7636 -79.3228 216° Southwest 378 435 38,000  Level Washington Center
Fri 01:40:10 PM 36.6842 -79.3942 216° Southwest 383 441 38,000  Level Washington Center
Fri 01:41:08 PM 36.6172 -79.4581 217° Southwest 383 441 38,000  Level Washington Center
Fri 01:43:20 PM 36.4031 -79.6483 216° Southwest 396 456 38,000  Level Atlanta Center
Fri 01:44:20 PM 36.3042 -79.7389 216° Southwest 396 456 38,000  Level Atlanta Center
Fri 01:45:20 PM 36.2150 -79.8183 216° Southwest 396 456 38,000  Level Atlanta Center
Fri 01:46:20 PM 36.1261 -79.8975 216° Southwest 396 456 38,000  Level Atlanta Center
Fri 01:47:20 PM 36.0350 -79.9792 216° Southwest 396 456 38,000  Level Atlanta Center
Fri 01:48:20 PM 35.9283 -80.0358 203° Southwest 396 456 38,000  Level Atlanta Center
Fri 01:49:20 PM 35.8317 -80.0814 201° Southwest 409 471 38,000  Level Atlanta Center
Fri 01:50:20 PM 35.7250 -80.1328 201° Southwest 414 476 38,000  Level Atlanta Center
Fri 01:51:20 PM 35.6081 -80.1944 203° Southwest 414 476 38,000  Level Atlanta Center
Fri 01:52:20 PM 35.5156 -80.2422 203° Southwest 414 476 38,000  Level Atlanta Center
Fri 01:53:20 PM 35.4086 -80.2956 202° Southwest 409 471 38,000  Level Atlanta Center
Fri 01:54:20 PM 35.3019 -80.3489 202° Southwest 409 471 38,000  Level Atlanta Center
Fri 01:55:20 PM 35.1969 -80.4017 202° Southwest 409 471 38,000  Level Atlanta Center
Fri 01:57:31 PM 34.9636 -80.5167 202° Southwest 428 493 38,000  Level Jacksonville Center
Fri 01:58:31 PM 34.8478 -80.5756 203° Southwest 422 486 38,000  Level Jacksonville Center
Fri 01:59:31 PM 34.7569 -80.6208 202° Southwest 410 472 38,000 -50 Level Jacksonville Center
Fri 02:00:31 PM 34.6494 -80.6767 203° Southwest 415 478 37,900  Descending Jacksonville Center
Fri 02:01:31 PM 34.5253 -80.7353 201° Southwest 430 495 38,000 50 Climbing Jacksonville Center
Fri 02:02:31 PM 34.4197 -80.7833 201° Southwest 424 488 38,000  Level Jacksonville Center
Fri 02:03:31 PM 34.3142 -80.8361 202° Southwest 412 474 38,000  Level Jacksonville Center
Fri 02:04:31 PM 34.2250 -80.8783 201° Southwest 406 467 38,000  Level Jacksonville Center
Fri 02:05:31 PM 34.1175 -80.9311 202° Southwest 406 467 38,000  Level Jacksonville Center
Fri 02:06:31 PM 34.0139 -80.9836 203° Southwest 413 475 38,000  Level Jacksonville Center
Fri 02:07:31 PM 33.9019 -81.0308 199° South 413 475 38,000  Level Jacksonville Center
Fri 02:08:31 PM 33.7983 -81.0831 203° Southwest 413 475 38,000  Level Jacksonville Center
Fri 02:09:31 PM 33.6947 -81.1378 204° Southwest 413 475 38,000  Level Jacksonville Center
Fri 02:10:31 PM 33.5892 -81.1897 202° Southwest 413 475 38,000  Level Jacksonville Center
Fri 02:11:31 PM 33.4856 -81.2414 203° Southwest 413 475 38,000  Level Jacksonville Center
Fri 02:12:31 PM 33.3775 -81.2931 202° Southwest 413 475 38,000  Level Jacksonville Center
Fri 02:13:31 PM 33.2697 -81.3472 203° Southwest 413 475 38,000  Level Jacksonville Center
Fri 02:14:31 PM 33.1639 -81.3989 202° Southwest 413 475 38,000  Level Jacksonville Center
Fri 02:15:31 PM 33.0600 -81.4475 201° Southwest 413 475 38,000  Level Jacksonville Center
Fri 02:16:31 PM 32.9542 -81.4989 202° Southwest 413 475 38,000  Level Jacksonville Center
Fri 02:17:31 PM 32.8483 -81.5500 202° Southwest 413 475 38,000  Level Jacksonville Center
Fri 02:18:31 PM 32.7425 -81.6033 203° Southwest 413 475 38,000  Level Jacksonville Center
Fri 02:19:31 PM 32.6281 -81.6592 202° Southwest 408 470 38,000  Level Jacksonville Center
Fri 02:20:31 PM 32.5222 -81.7100 202° Southwest 414 476 38,000  Level Jacksonville Center
Fri 02:21:31 PM 32.4267 -81.7556 202° Southwest 414 476 38,000  Level Jacksonville Center
Fri 02:22:31 PM 32.3100 -81.8086 201° Southwest 414 476 38,000  Level Jacksonville Center
Fri 02:23:31 PM 32.2122 -81.8392 195° South 414 476 38,000  Level Jacksonville Center
Fri 02:24:31 PM 32.0808 -81.8628 189° South 426 490 38,000  Level Jacksonville Center
Fri 02:25:31 PM 31.9661 -81.8764 186° South 426 490 38,000  Level Jacksonville Center
Fri 02:26:31 PM 31.8597 -81.8922 187° South 426 490 38,000  Level Jacksonville Center
Fri 02:27:31 PM 31.7325 -81.9081 186° South 426 490 38,000  Level Jacksonville Center
Fri 02:28:31 PM 31.6264 -81.9239 187° South 426 490 38,000  Level Jacksonville Center
Fri 02:29:31 PM 31.4989 -81.9422 187° South 431 496 38,000  Level Jacksonville Center
Fri 02:30:31 PM 31.3822 -81.9631 189° South 425 489 38,000  Level Jacksonville Center
Fri 02:31:31 PM 31.2633 -81.9811 187° South 418 481 38,000  Level Jacksonville Center
Fri 02:32:31 PM 31.1467 -81.9969 187° South 426 490 38,000  Level Jacksonville Center
Fri 02:33:31 PM 31.0319 -82.0125 187° South 426 490 38,000  Level Jacksonville Center
Fri 02:34:31 PM 30.9150 -82.0306 188° South 426 490 38,000  Level Jacksonville Center
Fri 02:35:31 PM 30.7983 -82.0486 188° South 426 490 38,000  Level Jacksonville Center
Fri 02:36:31 PM 30.6814 -82.0642 187° South 426 490 38,000  Level Jacksonville Center
Fri 02:37:31 PM 30.5647 -82.0794 186° South 426 490 38,000  Level Jacksonville Center
Fri 02:38:31 PM 30.4622 -82.0900 185° South 426 490 38,000  Level Jacksonville Center
Fri 02:39:31 PM 30.3456 -82.1078 187° South 426 490 38,000  Level Jacksonville Center
Fri 02:40:31 PM 30.2308 -82.1233 187° South 426 490 38,000  Level Jacksonville Center
Fri 02:41:31 PM 30.1097 -82.1147 176° South 426 490 38,000  Level Jacksonville Center
Fri 02:42:31 PM 29.9758 -82.0942 172° South 432 497 38,000  Level Jacksonville Center
Fri 02:43:31 PM 29.8525 -82.0689 170° South 444 511 38,000 -350 Level Jacksonville Center
Fri 02:44:31 PM 29.7481 -82.0408 167° South 440 506 37,300 -750 Descending Jacksonville Center
Fri 02:45:31 PM 29.6225 -82.0231 173° South 424 488 36,500 -800 Descending Jacksonville Center
Fri 02:46:31 PM 29.5161 -82.0025 170° South 406 467 35,700 -750 Descending Jacksonville Center
Fri 02:47:31 PM 29.4072 -81.9794 170° South 399 459 35,000 -450 Descending Jacksonville Center
Fri 02:48:31 PM 29.2922 -81.9592 171° South 407 468 34,800 -800 Descending Jacksonville Center
Fri 02:49:31 PM 29.1731 -81.9269 167° South 423 487 33,400 -1,400 Descending Jacksonville Center
Fri 02:50:31 PM 29.0456 -81.9044 171° South 446 513 32,000 -1,450 Descending Jacksonville Center
Fri 02:51:31 PM 28.9203 -81.8772 169° South 458 527 30,500 -1,391 Descending Jacksonville Center
Fri 02:53:02 PM 28.7375 -81.8464 172° South 450 518 28,500 -1,272 Descending Miami Center
Fri 02:54:02 PM 28.6114 -81.8194 169° South 455 524 27,300 -750 Descending Miami Center
Fri 02:55:02 PM 28.4872 -81.7903 168° South 465 535 27,000 -300 Descending Miami Center
Fri 02:56:02 PM 28.3611 -81.7517 165° South 465 535 26,700 -600 Descending Miami Center
Fri 02:57:02 PM 28.2247 -81.7175 168° South 465 535 25,800 -900 Descending Miami Center
Fri 02:58:02 PM 28.1153 -81.6869 166° South 454 522 24,900 -950 Descending Miami Center
Fri 02:59:02 PM 27.9969 -81.6678 172° South 441 507 23,900 -900 Descending Miami Center
Fri 03:00:02 PM 27.8828 -81.6442 170° South 431 496 23,100 -1,250 Descending Miami Center
Fri 03:01:02 PM 27.7667 -81.6250 172° South 424 488 21,400 -1,850 Descending Miami Center
Fri 03:02:02 PM 27.6506 -81.6039 171° South 424 488 19,400 -1,900 Descending Miami Center
Fri 03:03:02 PM 27.5242 -81.5775 170° South 424 488 17,600 -1,850 Descending Miami Center
Fri 03:04:02 PM 27.4119 -81.5589 172° South 424 488 15,700 -1,800 Descending Miami Center
Fri 03:05:02 PM 27.3000 -81.5381 171° South 419 482 14,000 -1,700 Descending Miami Center
Fri 03:06:02 PM 27.1919 -81.5172 170° South 409 471 12,300 -1,600 Descending Miami Center
Fri 03:07:02 PM 27.0861 -81.4992 171° South 398 458 10,800 -1,150 Descending Miami Center
Fri 03:08:02 PM 26.9847 -81.4717 166° South 387 445 10,000 -550 Descending Miami Center
Fri 03:09:02 PM 26.8964 -81.4264 155° Southeast 365 420 9,700 -600 Descending Miami Center
Fri 03:10:02 PM 26.8203 -81.3931 159° South 321 369 8,800 -567 Descending Miami Center
Fri 03:12:02 PM 26.6678 -81.3964 181° South 290 334 8,000 -267 Descending Miami Center
Fri 03:13:02 PM 26.5861 -81.4003 182° South 290 334 8,000  Level Miami Center
Fri 03:14:02 PM 26.5067 -81.4089 186° South 290 334 8,000 -200 Level Miami Center
Fri 03:15:02 PM 26.4283 -81.4383 199° South 295 339 7,600 -400 Descending Miami Center
Fri 03:17:00 PM 26.2581 -81.5505 241° Southwest  Level FlightAware Approximate
Fri 03:24:00 PM 26.1500 -81.7667 246° West  Level FlightAware Approximate
Fri 03:25:00 PM 26.1524 -81.7756 246° West  Level Estimated
Fri 03:26:00 PM 26.1524 -81.7756 246° West  Level Estimated
Fri 03:27:00 PM 26.1524 -81.7756 246° West  Level Estimated
Fri 03:28:00 PM 26.1524 -81.7756 246° West  Level Estimated
Fri 03:29:00 PM 26.1524 -81.7756 246° West  Level Estimated
Fri 03:30:00 PM 26.1524 -81.7756 246° West  Level Estimated
Fri 03:31:00 PM 26.1524 -81.7756 246° West  Level Estimated
Fri 03:32:00 PM 26.1524 -81.7756 246° West  Level Estimated
Fri 03:33:00 PM 26.1524 -81.7756 246° West  Level Estimated
Fri 03:34:00 PM 26.1524 -81.7756 246° West  Level Estimated
Fri 03:35:00 PM 26.1524 -81.7756 246° West  Level Estimated

Login

Don't have an account? Register now (free) for customized features, flight alerts, and more!